createdAt,value
2022-12-23T00:02:00.703Z,95533.16
2022-12-23T00:04:28.983Z,95547.56
2022-12-23T00:06:57.182Z,95581.28
2022-12-23T00:09:25.748Z,95577.00
2022-12-23T00:12:07.901Z,95541.56
2022-12-23T00:14:55.202Z,95538.72
2022-12-23T00:17:23.573Z,95557.88
2022-12-23T00:19:51.870Z,95549.84
2022-12-23T00:22:20.287Z,95530.28
2022-12-23T00:24:48.491Z,95532.53
2022-12-23T00:27:16.660Z,95593.38
2022-12-23T00:29:46.171Z,95595.03
2022-12-23T00:32:14.490Z,95602.69
2022-12-23T00:34:42.709Z,95514.59
2022-12-23T00:37:10.856Z,95523.03
2022-12-23T00:40:01.103Z,95533.47
2022-12-23T00:42:50.132Z,95541.03
2022-12-23T00:45:20.120Z,95492.47
2022-12-23T00:48:07.390Z,95511.59
2022-12-23T00:50:39.007Z,95558.41
2022-12-23T00:53:08.096Z,95533.47
2022-12-23T00:55:36.276Z,95508.81
2022-12-23T00:58:04.496Z,95516.13
2022-12-23T01:00:51.817Z,95521.06
2022-12-23T01:03:37.978Z,95570.44
2022-12-23T01:06:14.182Z,95574.53
2022-12-23T01:08:42.413Z,95512.84
2022-12-23T01:11:13.026Z,95502.72
2022-12-23T01:13:41.523Z,95522.97
2022-12-23T01:16:17.252Z,95501.25
2022-12-23T01:18:46.299Z,95516.28
2022-12-23T01:21:14.983Z,95525.09
2022-12-23T01:23:43.238Z,95536.41
2022-12-23T01:26:13.295Z,95502.06
2022-12-23T01:28:41.473Z,95537.44
2022-12-23T01:31:11.911Z,95488.44
2022-12-23T01:33:40.196Z,95525.16
2022-12-23T01:36:11.151Z,95554.41
2022-12-23T01:38:39.306Z,95510.91
2022-12-23T01:41:08.018Z,95529.53
2022-12-23T01:43:50.019Z,95514.63
2022-12-23T01:46:19.648Z,95519.53
2022-12-23T01:48:52.316Z,95529.88
2022-12-23T01:51:25.480Z,95523.63
2022-12-23T01:53:57.970Z,95655.75
2022-12-23T01:56:30.528Z,95500.25
2022-12-23T01:59:04.157Z,95514.78
2022-12-23T02:01:56.385Z,95527.25
2022-12-23T02:04:26.153Z,95521.69
2022-12-23T02:07:11.668Z,95552.72
2022-12-23T02:09:41.757Z,95548.09
2022-12-23T02:12:30.083Z,95534.03
2022-12-23T02:15:44.919Z,95489.03
2022-12-23T02:18:42.612Z,95529.94
2022-12-23T02:21:28.820Z,95540.91
2022-12-23T02:24:50.668Z,95537.75
2022-12-23T02:27:28.282Z,95477.00
2022-12-23T02:30:37.375Z,95573.41
2022-12-23T02:33:44.281Z,95568.97
2022-12-23T02:36:28.674Z,95555.00
2022-12-23T02:39:03.456Z,95591.38
2022-12-23T02:41:42.422Z,95561.19
2022-12-23T02:44:20.364Z,95470.69
2022-12-23T02:46:52.975Z,95559.09
2022-12-23T02:49:26.579Z,95586.25
2022-12-23T02:51:57.839Z,95556.88
2022-12-23T02:54:31.512Z,95521.66
2022-12-23T02:57:04.310Z,95532.81
2022-12-23T02:59:38.482Z,95593.91
2022-12-23T03:02:11.063Z,95602.78
2022-12-23T03:04:45.087Z,95572.03
2022-12-23T03:07:18.925Z,95476.06
2022-12-23T03:09:59.655Z,95525.47
2022-12-23T03:12:44.139Z,95604.69
2022-12-23T03:15:26.349Z,95560.06
2022-12-23T03:18:04.891Z,95527.66
2022-12-23T03:20:41.777Z,95564.97
2022-12-23T03:23:22.505Z,95566.81
2022-12-23T03:25:59.682Z,95542.34
2022-12-23T03:28:35.417Z,95564.25
2022-12-23T03:31:07.967Z,95609.41
2022-12-23T03:33:41.002Z,95561.00
2022-12-23T03:36:15.623Z,95609.25
2022-12-23T03:38:46.387Z,95595.97
2022-12-23T03:41:19.989Z,95597.94
2022-12-23T03:43:55.717Z,95527.66
2022-12-23T03:46:34.130Z,95603.19
2022-12-23T03:49:07.728Z,95611.59
2022-12-23T03:51:42.306Z,95547.22
2022-12-23T03:54:16.041Z,95632.91
2022-12-23T03:56:51.304Z,95620.84
2022-12-23T03:59:24.404Z,95585.03
2022-12-23T04:02:05.145Z,95636.31
2022-12-23T04:04:52.688Z,95636.63
2022-12-23T04:07:25.275Z,95625.06
2022-12-23T04:09:54.612Z,95602.09
2022-12-23T04:12:24.393Z,95620.28
2022-12-23T04:14:52.947Z,95605.25
2022-12-23T04:17:21.642Z,95601.25
2022-12-23T04:19:52.554Z,95646.19
2022-12-23T04:22:20.733Z,95639.53
2022-12-23T04:24:49.523Z,95700.91
2022-12-23T04:27:18.771Z,95655.91
2022-12-23T04:29:47.342Z,95662.16
2022-12-23T04:32:15.940Z,95660.00
2022-12-23T04:34:44.132Z,95649.84
2022-12-23T04:37:13.787Z,95642.63
2022-12-23T04:39:42.035Z,95658.91
2022-12-23T04:42:10.353Z,95641.75
2022-12-23T04:44:38.510Z,95633.94
2022-12-23T04:47:06.901Z,95646.06
2022-12-23T04:49:35.254Z,95652.66
2022-12-23T04:52:03.502Z,95669.16
2022-12-23T04:54:33.035Z,95681.28
2022-12-23T04:57:01.463Z,95580.88
2022-12-23T04:59:29.784Z,95686.81
2022-12-23T05:01:58.194Z,95693.16
2022-12-23T05:04:26.835Z,95691.53
2022-12-23T05:07:01.703Z,95697.16
2022-12-23T05:09:30.027Z,95689.53
2022-12-23T05:11:59.573Z,95673.34
2022-12-23T05:14:27.756Z,95687.63
2022-12-23T05:17:02.124Z,95700.69
2022-12-23T05:19:33.549Z,95620.72
2022-12-23T05:22:01.719Z,95700.59
2022-12-23T05:24:29.991Z,95690.16
2022-12-23T05:27:00.549Z,95682.09
2022-12-23T05:29:28.953Z,95654.50
2022-12-23T05:31:57.269Z,95700.44
2022-12-23T05:34:25.495Z,95693.16
2022-12-23T05:36:53.689Z,95691.97
2022-12-23T05:39:21.869Z,95724.13
2022-12-23T05:41:50.034Z,95723.03
2022-12-23T05:44:19.553Z,95724.63
2022-12-23T05:46:47.788Z,95736.75
2022-12-23T05:49:16.856Z,95722.09
2022-12-23T05:51:45.999Z,95706.78
2022-12-23T05:54:14.322Z,95765.22
2022-12-23T05:56:42.519Z,95740.78
2022-12-23T05:59:11.159Z,95740.28
2022-12-23T06:01:40.774Z,95784.22
2022-12-23T06:04:09.148Z,95739.63
2022-12-23T06:06:37.569Z,95751.06
2022-12-23T06:09:30.737Z,95712.03
2022-12-23T06:11:58.906Z,95781.09
2022-12-23T06:14:29.313Z,95783.84
2022-12-23T06:16:59.324Z,95765.84
2022-12-23T06:19:28.098Z,95728.75
2022-12-23T06:21:56.272Z,95776.22
2022-12-23T06:24:24.533Z,95756.25
2022-12-23T06:26:56.960Z,95751.41
2022-12-23T06:29:26.025Z,95695.19
2022-12-23T06:31:54.288Z,95748.16
2022-12-23T06:34:23.948Z,95756.09
2022-12-23T06:36:52.184Z,95750.19
2022-12-23T06:39:20.711Z,95791.47
2022-12-23T06:41:48.896Z,95773.94
2022-12-23T06:44:17.360Z,95776.91
2022-12-23T06:46:45.641Z,95732.03
2022-12-23T06:49:14.174Z,95739.34
2022-12-23T06:51:43.858Z,95799.84
2022-12-23T06:54:13.028Z,95785.25
2022-12-23T06:56:41.286Z,95787.91
2022-12-23T06:59:09.510Z,95734.16
2022-12-23T07:01:38.607Z,95771.19
2022-12-23T07:04:32.889Z,95780.19
2022-12-23T07:07:03.330Z,95776.97
2022-12-23T07:09:31.568Z,95796.63
2022-12-23T07:11:59.779Z,95760.50
2022-12-23T07:14:28.576Z,95812.53
2022-12-23T07:16:56.863Z,95791.84
2022-12-23T07:19:25.440Z,95816.91
2022-12-23T07:21:53.634Z,95827.59
2022-12-23T07:24:23.181Z,95828.94
2022-12-23T07:26:52.330Z,95835.97
2022-12-23T07:29:20.502Z,95839.41
2022-12-23T07:31:48.830Z,95828.59
2022-12-23T07:34:17.131Z,95841.22
2022-12-23T07:36:45.333Z,95839.75
2022-12-23T07:39:13.561Z,95760.69
2022-12-23T07:41:43.092Z,95788.56
2022-12-23T07:44:14.818Z,95860.38
2022-12-23T07:46:43.142Z,95823.66
2022-12-23T07:49:11.436Z,95819.69
2022-12-23T07:51:40.020Z,95823.28
2022-12-23T07:54:08.232Z,95828.53
2022-12-23T07:56:36.467Z,95797.66
2022-12-23T07:59:05.983Z,95831.34
2022-12-23T08:01:34.259Z,95819.31
2022-12-23T08:04:02.528Z,95795.50
2022-12-23T08:06:30.878Z,95758.06
2022-12-23T08:08:59.079Z,95796.31
2022-12-23T08:11:28.115Z,95792.00
2022-12-23T08:13:56.782Z,95760.16
2022-12-23T08:16:26.367Z,95793.75
2022-12-23T08:18:54.897Z,95817.56
2022-12-23T08:21:23.197Z,95791.31
2022-12-23T08:23:52.965Z,95847.47
2022-12-23T08:26:24.117Z,95825.75
2022-12-23T08:28:53.876Z,95681.06
2022-12-23T08:31:24.940Z,95886.47
2022-12-23T08:33:56.710Z,95835.09
2022-12-23T08:36:27.582Z,95868.88
2022-12-23T08:38:57.915Z,95865.41
2022-12-23T08:41:29.239Z,95773.03
2022-12-23T08:43:58.213Z,95844.19
2022-12-23T08:46:26.867Z,95793.19
2022-12-23T08:48:57.022Z,95832.75
2022-12-23T08:51:27.091Z,95821.44
2022-12-23T08:54:00.402Z,95836.19
2022-12-23T08:56:33.462Z,95854.41
2022-12-23T08:59:03.296Z,95836.84
2022-12-23T09:01:34.694Z,95802.69
2022-12-23T09:04:14.800Z,95824.94
2022-12-23T09:07:15.327Z,95818.22
2022-12-23T09:09:43.595Z,95845.38
2022-12-23T09:12:11.823Z,95845.00
2022-12-23T09:14:39.976Z,95820.50
2022-12-23T09:17:08.109Z,95836.84
2022-12-23T09:19:37.573Z,95857.06
2022-12-23T09:22:05.698Z,95833.00
2022-12-23T09:24:33.964Z,95870.09
2022-12-23T09:29:54.142Z,95853.94
2022-12-23T09:32:22.395Z,95786.28
2022-12-23T09:34:51.995Z,95835.78
2022-12-23T09:37:20.340Z,95810.00
2022-12-23T09:39:48.552Z,95828.69
2022-12-23T09:42:32.163Z,95816.09
2022-12-23T09:45:14.197Z,95779.53
2022-12-23T09:47:44.064Z,95809.75
2022-12-23T09:50:25.234Z,95841.53
2022-12-23T09:53:02.135Z,95727.03
2022-12-23T09:55:39.216Z,95846.78
2022-12-23T09:58:17.627Z,95826.16
2022-12-23T10:01:05.424Z,95830.94
2022-12-23T10:03:54.557Z,95799.16
2022-12-23T10:06:29.156Z,95845.63
2022-12-23T10:09:03.444Z,95834.09
2022-12-23T10:11:35.611Z,95824.44
2022-12-23T10:14:13.224Z,95825.41
2022-12-23T10:16:46.749Z,95850.03
2022-12-23T10:19:22.109Z,95801.94
2022-12-23T10:21:55.761Z,95767.06
2022-12-23T10:24:26.243Z,95794.38
2022-12-23T10:26:57.096Z,95666.53
2022-12-23T10:29:27.313Z,95814.84
2022-12-23T10:32:07.882Z,95815.13
2022-12-23T10:34:47.460Z,95799.13
2022-12-23T10:37:29.407Z,95824.03
2022-12-23T10:40:11.240Z,95826.84
2022-12-23T10:42:47.405Z,95767.25
2022-12-23T10:45:36.649Z,95842.28
2022-12-23T10:48:23.758Z,95809.09
2022-12-23T10:50:59.633Z,95791.63
2022-12-23T10:53:38.482Z,95731.66
2022-12-23T10:56:07.976Z,95817.31
2022-12-23T10:58:42.402Z,95796.78
2022-12-23T11:01:18.855Z,95809.66
2022-12-23T11:04:08.567Z,95788.38
2022-12-23T11:07:10.699Z,95747.03
2022-12-23T11:09:45.534Z,95711.16
2022-12-23T11:12:14.909Z,95773.31
2022-12-23T11:14:51.578Z,95789.06
2022-12-23T11:17:23.584Z,95803.25
2022-12-23T11:20:13.230Z,95775.06
2022-12-23T11:22:50.421Z,95783.22
2022-12-23T11:25:36.728Z,95776.69
2022-12-23T11:28:09.358Z,95750.84
2022-12-23T11:30:53.467Z,95763.38
2022-12-23T11:33:27.954Z,95764.38
2022-12-23T11:36:06.181Z,95733.00
2022-12-23T11:38:37.286Z,95731.75
2022-12-23T11:41:07.384Z,95733.44
2022-12-23T11:43:35.602Z,95740.41
2022-12-23T11:46:26.751Z,95731.38
2022-12-23T11:49:10.802Z,95727.75
2022-12-23T11:51:39.051Z,95703.72
2022-12-23T11:54:07.308Z,95698.69
2022-12-23T11:56:39.438Z,95769.81
2022-12-23T11:59:17.193Z,95701.81
2022-12-23T12:01:49.460Z,95704.84
2022-12-23T12:04:23.782Z,95691.53
2022-12-23T12:06:56.578Z,95697.03
2022-12-23T12:09:26.068Z,95667.59
2022-12-23T12:12:04.441Z,95688.16
2022-12-23T12:14:39.012Z,95648.09
2022-12-23T12:17:18.225Z,95623.47
2022-12-23T12:20:01.334Z,95669.13
2022-12-23T12:22:39.042Z,95661.16
2022-12-23T12:25:20.727Z,95645.41
2022-12-23T12:27:57.526Z,95653.72
2022-12-23T12:30:31.974Z,95640.50
2022-12-23T12:33:08.269Z,95607.78
2022-12-23T12:35:43.767Z,95621.09
2022-12-23T12:38:22.090Z,95371.25
2022-12-23T12:40:54.826Z,95616.38
2022-12-23T12:43:31.421Z,95613.94
2022-12-23T12:46:13.143Z,95650.28
2022-12-23T12:48:50.153Z,95624.06
2022-12-23T12:51:26.456Z,95638.69
2022-12-23T12:54:06.183Z,95609.59
2022-12-23T12:56:45.251Z,95604.50
2022-12-23T12:59:19.483Z,95607.78
2022-12-23T13:02:00.958Z,95600.59
2022-12-23T13:05:28.778Z,95562.72
2022-12-23T13:08:15.923Z,95568.72
2022-12-23T13:10:49.388Z,95600.88
2022-12-23T13:13:33.326Z,95568.34
2022-12-23T13:16:12.378Z,95575.22
2022-12-23T13:18:48.155Z,95546.28
2022-12-23T13:21:24.082Z,95560.91
2022-12-23T13:24:03.855Z,95579.19
2022-12-23T13:26:39.949Z,95593.91
2022-12-23T13:29:37.933Z,95601.41
2022-12-23T13:32:28.790Z,95579.88
2022-12-23T13:35:05.734Z,95581.75
2022-12-23T13:37:41.979Z,95583.63
2022-12-23T13:40:30.684Z,95577.38
2022-12-23T13:43:05.913Z,95562.34
2022-12-23T13:45:38.563Z,95574.13
2022-12-23T13:48:29.168Z,95576.09
2022-12-23T13:51:05.287Z,95571.84
2022-12-23T13:53:51.107Z,95560.63
2022-12-23T13:56:30.603Z,95552.84
2022-12-23T13:58:59.269Z,95507.91
2022-12-23T14:01:37.502Z,95511.38
2022-12-23T14:07:21.143Z,95494.06
2022-12-23T14:09:53.437Z,95525.91
2022-12-23T14:12:28.073Z,95511.56
2022-12-23T14:15:26.160Z,95508.91
2022-12-23T14:18:11.042Z,95539.31
2022-12-23T14:20:51.100Z,95585.38
2022-12-23T14:23:36.835Z,95505.00
2022-12-23T14:26:26.308Z,95543.31
2022-12-23T14:29:14.195Z,95405.06
2022-12-23T14:31:46.166Z,95524.09
2022-12-23T14:34:30.487Z,95503.50
2022-12-23T14:37:31.804Z,95483.91
2022-12-23T14:40:56.330Z,95513.47
2022-12-23T14:43:35.071Z,95388.16
2022-12-23T14:46:05.887Z,95481.13
2022-12-23T14:49:38.929Z,95495.31
2022-12-23T14:52:48.274Z,95498.59
2022-12-23T14:55:45.192Z,95515.19
2022-12-23T14:58:39.770Z,95449.25
2022-12-23T15:01:13.631Z,95487.38
2022-12-23T15:03:59.240Z,95478.38
2022-12-23T15:06:58.280Z,95434.28
2022-12-23T15:09:29.464Z,95448.53
2022-12-23T15:12:02.939Z,95455.19
2022-12-23T15:14:36.572Z,95458.13
2022-12-23T15:17:22.397Z,95482.47
2022-12-23T15:19:50.633Z,95486.38
2022-12-23T15:22:24.126Z,95478.09
2022-12-23T15:24:53.696Z,95448.41
2022-12-23T15:27:28.420Z,95466.13
2022-12-23T15:29:58.158Z,95450.34
2022-12-23T15:32:27.598Z,95482.22
2022-12-23T15:35:04.279Z,95500.25
2022-12-23T15:37:33.452Z,95438.00
2022-12-23T15:40:13.168Z,95483.88
2022-12-23T15:42:49.084Z,95501.75
2022-12-23T15:45:35.075Z,95474.59
2022-12-23T15:48:04.733Z,95445.94
2022-12-23T15:50:40.407Z,95485.34
2022-12-23T15:53:14.100Z,95503.75
2022-12-23T15:55:42.410Z,95507.88
2022-12-23T15:58:20.516Z,95533.56
2022-12-23T16:00:54.896Z,95475.22
2022-12-23T16:03:30.632Z,95498.53
2022-12-23T16:06:10.075Z,95516.91
2022-12-23T16:08:44.456Z,95515.38
2022-12-23T16:11:17.118Z,95531.41
2022-12-23T16:13:59.139Z,95469.44
2022-12-23T16:16:39.396Z,95437.44
2022-12-23T16:19:28.220Z,95450.88
2022-12-23T16:21:56.472Z,95488.41
2022-12-23T16:24:24.926Z,95457.38
2022-12-23T16:26:56.314Z,95470.75
2022-12-23T16:29:25.883Z,95517.31
2022-12-23T16:32:01.707Z,95456.22
2022-12-23T16:34:32.796Z,95485.03
2022-12-23T16:37:00.972Z,95441.91
2022-12-23T16:39:29.519Z,95502.88
2022-12-23T16:41:58.006Z,95459.97
2022-12-23T16:44:27.633Z,95475.66
2022-12-23T16:46:55.861Z,95469.25
2022-12-23T16:49:34.405Z,95429.56
2022-12-23T16:52:04.260Z,95468.88
2022-12-23T16:54:32.939Z,95470.44
2022-12-23T16:57:01.256Z,95449.94
2022-12-23T16:59:31.173Z,95487.16
2022-12-23T17:02:03.517Z,95451.91
2022-12-23T17:05:02.979Z,95464.72
2022-12-23T17:07:31.176Z,95485.91
2022-12-23T17:09:59.780Z,95466.06
2022-12-23T17:12:28.308Z,95448.94
2022-12-23T17:14:57.871Z,95474.59
2022-12-23T17:17:26.321Z,95467.06
2022-12-23T17:19:56.268Z,95477.47
2022-12-23T17:22:24.927Z,95493.66
2022-12-23T17:24:53.071Z,95464.88
2022-12-23T17:27:21.688Z,95475.22
2022-12-23T17:29:49.989Z,95469.72
2022-12-23T17:32:20.452Z,95475.06
2022-12-23T17:34:48.780Z,95480.72
2022-12-23T17:37:19.441Z,95469.41
2022-12-23T17:39:48.643Z,95475.47
2022-12-23T17:42:24.890Z,95501.44
2022-12-23T17:44:54.016Z,95529.38
2022-12-23T17:47:23.754Z,95477.16
2022-12-23T17:49:52.299Z,95452.59
2022-12-23T17:52:23.862Z,95525.34
2022-12-23T17:54:52.858Z,95507.75
2022-12-23T17:57:23.837Z,95416.31
2022-12-23T17:59:54.517Z,95466.00
2022-12-23T18:02:32.886Z,95558.66
2022-12-23T18:05:01.836Z,95497.22
2022-12-23T18:07:30.092Z,95510.47
2022-12-23T18:09:58.305Z,95521.38
2022-12-23T18:12:37.639Z,95519.19
2022-12-23T18:15:08.093Z,95496.50
2022-12-23T18:17:37.632Z,95521.63
2022-12-23T18:20:07.175Z,95485.31
2022-12-23T18:22:35.399Z,95503.63
2022-12-23T18:25:04.263Z,95558.81
2022-12-23T18:27:32.442Z,95491.81
2022-12-23T18:30:00.680Z,95522.19
2022-12-23T18:32:29.698Z,95451.31
2022-12-23T18:34:59.309Z,95496.25
2022-12-23T18:37:27.725Z,95504.41
2022-12-23T18:39:55.955Z,95484.91
2022-12-23T18:42:24.162Z,95528.31
2022-12-23T18:44:52.432Z,95544.94
2022-12-23T18:47:20.690Z,95518.19
2022-12-23T18:49:48.946Z,95554.69
2022-12-23T18:52:18.522Z,95529.53
2022-12-23T18:54:46.739Z,95553.81
2022-12-23T18:57:15.001Z,95560.09
2022-12-23T18:59:43.193Z,95581.00
2022-12-23T19:02:15.246Z,95494.16
2022-12-23T19:04:43.968Z,95554.16
2022-12-23T19:07:13.224Z,95557.59
2022-12-23T19:09:42.809Z,95539.13
2022-12-23T19:12:11.001Z,95553.81
2022-12-23T19:14:40.172Z,95541.19
2022-12-23T19:17:08.452Z,95569.56
2022-12-23T19:19:36.618Z,95562.66
2022-12-23T19:22:04.814Z,95589.78
2022-12-23T19:24:33.042Z,95608.06
2022-12-23T19:27:02.596Z,95569.91
2022-12-23T19:29:30.765Z,95583.28
2022-12-23T19:31:58.947Z,95586.13
2022-12-23T19:34:27.203Z,95636.03
2022-12-23T19:36:55.790Z,95588.53
2022-12-23T19:39:24.107Z,95602.72
2022-12-23T19:41:52.263Z,95626.59
2022-12-23T19:44:21.836Z,95577.59
2022-12-23T19:46:50.338Z,95552.34
2022-12-23T19:49:20.329Z,95612.88
2022-12-23T19:51:49.506Z,95596.03
2022-12-23T19:54:19.685Z,95637.56
2022-12-23T19:56:51.222Z,95612.88
2022-12-23T19:59:20.863Z,95652.16
2022-12-23T20:01:49.465Z,95657.88
2022-12-23T20:04:18.335Z,95630.69
2022-12-23T20:06:46.610Z,95586.50
2022-12-23T20:09:15.399Z,95614.81
2022-12-23T20:11:46.057Z,95664.72
2022-12-23T20:14:17.346Z,95630.69
2022-12-23T20:16:48.391Z,95644.38
2022-12-23T20:19:16.804Z,95655.31
2022-12-23T20:21:46.377Z,95664.66
2022-12-23T20:24:15.725Z,95610.50
2022-12-23T20:26:44.055Z,95654.31
2022-12-23T20:29:12.451Z,95653.13
2022-12-23T20:31:41.360Z,95525.50
2022-12-23T20:34:16.987Z,95626.06
2022-12-23T20:36:45.356Z,95642.78
2022-12-23T20:39:14.010Z,95669.81
2022-12-23T20:41:42.545Z,95637.72
2022-12-23T20:46:59.400Z,95654.69
2022-12-23T20:49:28.922Z,95691.19
2022-12-23T20:51:57.098Z,95617.09
2022-12-23T20:54:32.239Z,95655.38
2022-12-23T20:57:02.602Z,95651.75
2022-12-23T20:59:30.964Z,95704.63
2022-12-23T21:01:59.641Z,95720.94
2022-12-23T21:04:54.726Z,95687.56
2022-12-23T21:07:23.074Z,95694.47
2022-12-23T21:09:51.377Z,95703.91
2022-12-23T21:12:19.665Z,95747.47
2022-12-23T21:14:47.825Z,95739.13
2022-12-23T21:17:15.974Z,95702.19
2022-12-23T21:19:44.189Z,95733.31
2022-12-23T21:22:13.806Z,95663.34
2022-12-23T21:24:41.997Z,95725.44
2022-12-23T21:27:10.205Z,95777.59
2022-12-23T21:29:39.038Z,95730.47
2022-12-23T21:32:07.319Z,95759.19
2022-12-23T21:34:35.625Z,95717.00
2022-12-23T21:37:03.895Z,95725.28
2022-12-23T21:39:33.628Z,95771.16
2022-12-23T21:42:06.322Z,95803.84
2022-12-23T21:44:34.906Z,95738.16
2022-12-23T21:47:03.168Z,95782.25
2022-12-23T21:49:31.424Z,95786.25
2022-12-23T21:51:59.721Z,95781.97
2022-12-23T21:54:27.932Z,95796.03
2022-12-23T21:56:57.527Z,95777.34
2022-12-23T21:59:31.119Z,95820.34
2022-12-23T22:02:02.922Z,95783.88
2022-12-23T22:04:31.133Z,95757.31
2022-12-23T22:06:59.269Z,95773.81
2022-12-23T22:09:27.455Z,95760.94
2022-12-23T22:11:59.362Z,95749.78
2022-12-23T22:14:27.587Z,95785.34
2022-12-23T22:16:55.892Z,95791.69
2022-12-23T22:19:24.092Z,95822.53
2022-12-23T22:21:52.260Z,95792.16
2022-12-23T22:24:20.527Z,95779.16
2022-12-23T22:26:48.785Z,95843.59
2022-12-23T22:29:18.758Z,95814.38
2022-12-23T22:31:49.487Z,95813.75
2022-12-23T22:34:20.703Z,95854.72
2022-12-23T22:36:49.507Z,95683.81
2022-12-23T22:39:21.842Z,95851.22
2022-12-23T22:41:50.999Z,95845.41
2022-12-23T22:44:21.794Z,95856.34
2022-12-23T22:46:50.379Z,95873.75
2022-12-23T22:49:19.168Z,95822.47
2022-12-23T22:51:47.439Z,95891.19
2022-12-23T22:54:15.740Z,95903.41
2022-12-23T22:56:44.151Z,95833.56
2022-12-23T22:59:22.619Z,95884.69
2022-12-23T23:01:52.693Z,95716.69
2022-12-23T23:04:27.234Z,95908.75
2022-12-23T23:06:55.496Z,95842.53
2022-12-23T23:09:24.090Z,95925.81
2022-12-23T23:11:52.650Z,95910.66
2022-12-23T23:14:22.748Z,95922.16
2022-12-23T23:16:51.104Z,95932.69
2022-12-23T23:19:20.611Z,95880.94
2022-12-23T23:21:49.157Z,95907.88
2022-12-23T23:24:17.544Z,95896.88
2022-12-23T23:26:45.744Z,95877.22
2022-12-23T23:29:14.316Z,95854.78
2022-12-23T23:31:44.796Z,95943.31
2022-12-23T23:34:13.853Z,95921.34
2022-12-23T23:36:42.741Z,95872.56
2022-12-23T23:39:13.651Z,95939.72
2022-12-23T23:41:42.179Z,95920.94
2022-12-23T23:44:11.505Z,95919.13
2022-12-23T23:46:40.161Z,95926.34
2022-12-23T23:49:09.881Z,95970.63
2022-12-23T23:51:38.210Z,95940.31
2022-12-23T23:54:06.680Z,95936.53
2022-12-23T23:56:38.713Z,95964.41
2022-12-23T23:59:08.066Z,95928.03
